A- A+ FrançaisEnglishEspañol中国

Services sur Internet Soldes sur Internet Des idées de cadeaux Météo Météo aéro

La météo à : Autours de vous Aurillac Tarbes-Lourdes-PyrénéesAngouleme-Brie-Champniers Chauvigny

La météo aéronautique pour les pilotes, la préparation du vol avec les METAR (METeorological Aerodrome Report, message d'observation des conditions météorologiques pour l'aviation) et Les TAF (Terminal Aerodrome Forecast : message de prévision à court terme des conditions météorologiques pour l'aviation). Et les autres ressources comme les VAC (Visual Approch Chart) et les NOTAM (Notice To Airman) pour préprer les vols.

Aéroport Bizerte Sidi Ahmed (Tunisie) / OACI DTTB

L'altitude de l'aéroport Bizerte Sidi Ahmed est de 6 m = 20 ft. Il est situé à proximité de Sidi Ahmed (Tunisie). La météo générale à 5 jours est disponible pour Menzel Abderhaman situé à 6.4 km.

METAR de l'aéroport Bizerte Sidi Ahmed - DTTB

DTTB 291100Z 12005KT 090V160 9999 FEW020 27/18 Q1018

Décodage du METAR de l'aéroport Bizerte Sidi Ahmed (TN)

METAR émis par DTTB le dimanche 29 septembre 2019 à 11:00 heure TU. Attention ce METAR est obsolète car il a été émis il y a 4 heure et 13 minutes.

La visibilité est de supérieure à 10 km = supérieure à 6.2 sm.

La température est de 27°C = 81 °F et le point rosée est de 18°C = 64 °F . Ce qui correspond à 58% d'humidité relative.

Le QNH est de 1018 hPa = 30.06 inHg

Vent de 5 kt = 9 km/h, orienté à 120°.

Nuages : Quelques nuages à 2000 ft = 610 mètres.

TAF de l'aéroport Bizerte Sidi Ahmed - DTTB

DTTB 290900Z 2910/2919 VRB03KT 9999 FEW020

DTTB 290900Z 2910/2919 VRB03KT 9999 quelques nuages à 020

Aéroport à proximité de Bizerte Sidi Ahmed

Météo générale à 5 jours à Menzel Abderhaman (6.4 km)Aéroport Tunis Carthage (58 km)Aéroport Bordj El Amri (60 km)Aéroport Tabarka (86 km)Aéroport Annaba Mellah (182 km)Aéroport Monastir Habib Bourgiba (186 km)Aéroport Pantelleria (199 km)

Vue aérienne de l'aéroport Bizerte Sidi Ahmed

NOTAM de l'aéroport Bizerte Sidi Ahmed

Les NOTAM sont fournis sans aucune garantie de leur actualité. Le pilote est le seul responsable de la vérification de sa validité avant de l'utiliser opérationnellement pour préparer un vol ou l'utiliser lors de sa navigation.

Pas de NOTAM

Sources des données